Time;durP1;ratioP1;P1;durP2;ratioP2;P2;SDS_P1;SDS_P2;PMS_P1;PMS_P2;Temp;Humidity;BMP_temperature;BMP_pressure;BME280_temperature;BME280_humidity;BME280_pressure;Samples;Min_cycle;Max_cycle;Signal;HPM_P1;HPM_P2
2023/04/29 00:03:31;;;;;;;21.38;9.48;;;9.60;99.90;;;;;;20708141;28;20109;-42
2023/04/29 00:13:32;;;;;;;19.23;9.68;;;9.60;99.90;;;;;;20711192;28;20041;-42
2023/04/29 00:23:33;;;;;;;24.70;10.15;;;9.60;99.90;;;;;;20707802;28;21356;-42
2023/04/29 00:33:34;;;;;;;23.83;10.98;;;9.60;99.90;;;;;;20712526;28;20034;-43
2023/04/29 00:43:36;;;;;;;25.58;11.38;;;9.60;99.90;;;;;;20710696;28;20052;-43
2023/04/29 00:53:37;;;;;;;25.20;10.98;;;9.70;99.90;;;;;;20701850;28;20037;-42
2023/04/29 01:03:39;;;;;;;28.45;9.57;;;9.60;99.90;;;;;;20708115;28;20061;-43
2023/04/29 01:13:49;;;;;;;16.52;6.60;;;9.70;99.90;;;;;;20707416;28;20253;-43
2023/04/29 01:23:54;;;;;;;15.13;7.55;;;9.70;97.00;;;;;;20708129;28;20536;-43
2023/04/29 01:34:11;;;;;;;16.08;6.35;;;9.60;86.40;;;;;;20706876;28;20041;-42
2023/04/29 01:44:17;;;;;;;14.05;6.00;;;9.60;67.50;;;;;;20716841;28;20054;-42
2023/04/29 01:54:18;;;;;;;15.23;5.38;;;9.60;66.10;;;;;;20717315;28;20609;-43
2023/04/29 02:04:19;;;;;;;14.60;5.95;;;9.70;56.50;;;;;;20716149;28;20033;-42
2023/04/29 02:14:20;;;;;;;14.05;6.00;;;9.60;44.50;;;;;;20713243;28;20046;-43
2023/04/29 02:24:21;;;;;;;13.98;5.80;;;9.70;45.80;;;;;;20707018;28;20422;-43
2023/04/29 02:34:23;;;;;;;14.35;6.32;;;9.70;53.60;;;;;;20710591;28;20064;-42
2023/04/29 02:44:23;;;;;;;13.45;6.90;;;9.60;62.80;;;;;;20701868;28;20054;-42
2023/04/29 02:54:25;;;;;;;13.70;5.75;;;9.70;59.00;;;;;;20702268;28;20037;-42
2023/04/29 03:04:27;;;;;;;12.70;6.68;;;9.70;55.30;;;;;;20687271;28;20802;-42
2023/04/29 03:14:28;;;;;;;15.13;6.63;;;9.70;58.40;;;;;;20706506;28;20038;-43
2023/04/29 03:24:29;;;;;;;13.73;7.18;;;9.60;54.10;;;;;;20705490;28;20409;-42
2023/04/29 03:34:31;;;;;;;13.43;5.63;;;9.60;58.80;;;;;;20707943;28;20407;-43
2023/04/29 03:44:32;;;;;;;12.77;6.03;;;9.70;57.00;;;;;;20687376;28;21023;-43
2023/04/29 03:54:33;;;;;;;30.25;8.02;;;9.60;58.00;;;;;;20700405;28;20041;-43
2023/04/29 04:04:34;;;;;;;13.30;6.45;;;9.60;53.50;;;;;;20709388;28;20401;-43
2023/04/29 04:14:35;;;;;;;14.75;6.20;;;9.70;44.60;;;;;;20708817;28;20045;-42
2023/04/29 04:24:36;;;;;;;11.98;5.75;;;9.70;36.30;;;;;;20718745;28;20045;-42
2023/04/29 04:34:40;;;;;;;13.68;6.45;;;9.70;33.60;;;;;;20708370;28;20080;-43
2023/04/29 04:44:41;;;;;;;13.35;6.78;;;9.80;37.00;;;;;;20713839;28;20052;-42
2023/04/29 04:54:45;;;;;;;14.30;6.05;;;9.80;42.10;;;;;;20715922;28;20470;-42
2023/04/29 05:04:46;;;;;;;15.40;7.03;;;9.80;46.30;;;;;;20715055;28;20041;-43
2023/04/29 05:14:51;;;;;;;13.23;6.18;;;9.80;43.10;;;;;;20709528;28;20677;-42
2023/04/29 05:24:53;;;;;;;13.90;6.75;;;9.80;52.60;;;;;;20705052;28;20053;-42
2023/04/29 05:34:54;;;;;;;15.82;6.88;;;9.80;50.80;;;;;;20706541;28;20042;-42
2023/04/29 05:44:55;;;;;;;13.70;6.13;;;9.80;50.60;;;;;;20709043;28;20149;-43
2023/04/29 05:54:56;;;;;;;11.45;5.72;;;9.90;55.30;;;;;;20703032;28;20220;-43
2023/04/29 06:04:57;;;;;;;18.48;5.95;;;10.10;49.70;;;;;;20684017;28;20248;-43
2023/04/29 06:14:58;;;;;;;14.38;5.68;;;10.30;44.10;;;;;;20699633;28;20053;-42
2023/04/29 06:24:59;;;;;;;15.60;5.90;;;10.40;33.40;;;;;;20704510;28;20497;-42
2023/04/29 06:35:00;;;;;;;11.52;5.68;;;10.40;20.90;;;;;;20709300;28;20065;-42
2023/04/29 06:45:02;;;;;;;13.18;5.70;;;10.70;24.70;;;;;;20701570;28;20046;-43
2023/04/29 06:55:03;;;;;;;13.80;5.60;;;10.90;7.60;;;;;;20669124;28;20049;-42
2023/04/29 07:05:05;;;;;;;9.88;4.80;;;10.90;10.40;;;;;;20680714;28;20045;-42
2023/04/29 07:15:06;;;;;;;10.43;5.45;;;11.10;4.50;;;;;;20711017;28;20397;-43
2023/04/29 07:25:09;;;;;;;10.85;5.68;;;11.50;1.00;;;;;;20711061;28;20042;-42
2023/04/29 07:35:10;;;;;;;10.43;4.85;;;11.70;1.00;;;;;;20720675;28;20610;-42
2023/04/29 07:45:12;;;;;;;11.10;4.53;;;11.80;1.00;;;;;;20721031;28;20048;-43
2023/04/29 07:55:13;;;;;;;8.65;4.18;;;11.90;1.00;;;;;;20739825;28;20037;-43
2023/04/29 08:05:14;;;;;;;11.95;4.85;;;12.10;1.00;;;;;;20734962;28;20033;-42
2023/04/29 08:15:17;;;;;;;8.25;4.32;;;12.20;1.00;;;;;;20692252;28;20438;-42
2023/04/29 08:25:18;;;;;;;11.88;4.68;;;12.50;1.00;;;;;;20725845;28;20030;-43
2023/04/29 08:35:19;;;;;;;8.32;3.67;;;12.80;1.00;;;;;;20714849;28;20085;-42
2023/04/29 08:45:23;;;;;;;8.55;3.30;;;12.90;1.00;;;;;;20716417;28;20492;-43
2023/04/29 08:55:25;;;;;;;7.70;3.10;;;13.10;1.00;;;;;;20723108;28;20048;-43
2023/04/29 09:05:27;;;;;;;6.82;2.97;;;13.40;1.00;;;;;;20729286;28;20525;-43
2023/04/29 09:15:28;;;;;;;6.30;3.10;;;13.60;1.00;;;;;;20719857;28;20374;-43
2023/04/29 09:25:30;;;;;;;8.23;3.92;;;14.10;1.00;;;;;;20722490;28;20064;-43
2023/04/29 09:35:31;;;;;;;6.13;3.17;;;14.40;1.00;;;;;;20712044;28;20042;-43
2023/04/29 09:45:37;;;;;;;5.53;3.13;;;14.50;1.00;;;;;;20710982;28;20230;-43
2023/04/29 09:55:59;;;;;;;5.30;2.88;;;14.60;1.00;;;;;;20709166;28;20041;-43
2023/04/29 10:06:02;;;;;;;5.90;2.70;;;14.80;1.00;;;;;;20715812;28;20417;-43
2023/04/29 10:16:28;;;;;;;6.97;3.15;;;15.00;1.00;;;;;;20698355;28;20041;-43
2023/04/29 10:26:30;;;;;;;4.68;2.05;;;15.30;1.00;;;;;;20724978;28;20111;-43
2023/04/29 10:36:33;;;;;;;4.25;2.33;;;15.60;1.00;;;;;;20724464;28;20149;-40
2023/04/29 10:46:36;;;;;;;4.60;2.58;;;15.50;1.00;;;;;;20728305;28;20401;-40
2023/04/29 10:56:37;;;;;;;5.70;3.35;;;15.60;1.00;;;;;;20715399;28;20659;-43
2023/04/29 11:06:41;;;;;;;5.60;2.63;;;16.00;1.00;;;;;;20710209;28;20183;-43
2023/04/29 11:17:00;;;;;;;7.82;2.67;;;16.20;1.00;;;;;;20715470;28;20419;-41
2023/04/29 11:27:03;;;;;;;5.40;2.53;;;16.20;1.00;;;;;;20726523;28;20486;-41
2023/04/29 11:37:04;;;;;;;4.00;2.42;;;16.50;1.00;;;;;;20716034;28;20049;-41
2023/04/29 11:47:06;;;;;;;3.60;2.20;;;16.70;1.00;;;;;;20710242;28;20049;-41
2023/04/29 11:57:09;;;;;;;4.28;2.20;;;17.00;1.00;;;;;;20713977;28;20042;-41
2023/04/29 12:07:10;;;;;;;5.45;2.63;;;17.20;1.00;;;;;;20701846;28;20478;-41
2023/04/29 12:17:12;;;;;;;4.43;1.85;;;17.30;1.00;;;;;;20700199;28;20201;-41
2023/04/29 12:27:13;;;;;;;8.75;2.38;;;17.50;1.00;;;;;;20701358;28;20033;-41
2023/04/29 12:37:14;;;;;;;3.50;1.58;;;17.50;1.00;;;;;;20707049;28;20056;-42
2023/04/29 12:47:15;;;;;;;5.05;1.88;;;17.80;1.00;;;;;;20723884;28;20037;-41
2023/04/29 12:57:16;;;;;;;4.45;1.55;;;17.70;1.00;;;;;;20718473;28;20033;-42
2023/04/29 13:07:17;;;;;;;4.30;1.25;;;18.40;1.00;;;;;;20711779;28;20075;-41
2023/04/29 13:17:18;;;;;;;2.85;1.70;;;18.70;1.00;;;;;;20699260;28;20159;-41
2023/04/29 13:27:20;;;;;;;2.47;0.70;;;19.10;1.00;;;;;;20706886;28;20041;-42
2023/04/29 13:37:21;;;;;;;1.80;0.60;;;19.20;1.00;;;;;;20704370;28;20404;-42
2023/04/29 13:47:22;;;;;;;2.58;0.50;;;19.30;1.00;;;;;;20709533;28;20109;-41
2023/04/29 13:57:26;;;;;;;0.70;0.30;;;19.30;1.00;;;;;;20716645;28;20590;-42
2023/04/29 14:07:27;;;;;;;1.65;0.95;;;18.80;1.00;;;;;;20717002;28;20738;-41
2023/04/29 14:17:28;;;;;;;2.25;1.60;;;18.20;1.00;;;;;;20727736;28;20064;-41
2023/04/29 14:27:29;;;;;;;3.30;1.10;;;17.70;1.00;;;;;;20720116;28;20083;-41
2023/04/29 14:37:30;;;;;;;4.07;1.58;;;17.90;1.00;;;;;;20709002;28;20048;-41
2023/04/29 14:47:31;;;;;;;1.73;0.80;;;17.30;1.00;;;;;;20720837;28;20053;-41
2023/04/29 14:57:32;;;;;;;2.78;1.10;;;17.10;1.00;;;;;;20715205;28;20061;-41
2023/04/29 15:07:33;;;;;;;2.25;1.10;;;16.80;1.00;;;;;;20713219;28;20077;-41
2023/04/29 15:17:34;;;;;;;2.05;1.08;;;17.00;1.00;;;;;;20692468;28;20509;-41
2023/04/29 15:27:36;;;;;;;1.58;0.60;;;16.80;1.00;;;;;;20704604;28;20037;-41
2023/04/29 15:37:38;;;;;;;3.72;1.30;;;16.70;1.00;;;;;;20711981;28;20390;-41
2023/04/29 15:47:39;;;;;;;4.68;0.75;;;16.40;1.00;;;;;;20704813;28;20053;-41
2023/04/29 15:57:41;;;;;;;4.95;0.88;;;16.30;1.00;;;;;;20717073;28;20043;-41
2023/04/29 16:07:42;;;;;;;1.30;0.43;;;16.10;1.00;;;;;;20701678;28;20045;-41
2023/04/29 16:17:43;;;;;;;1.00;0.55;;;16.20;1.00;;;;;;20729939;28;20046;-41
2023/04/29 16:27:44;;;;;;;1.20;0.50;;;15.90;1.00;;;;;;20724822;28;20042;-40
2023/04/29 16:37:46;;;;;;;2.10;0.95;;;15.80;1.00;;;;;;20746944;28;20056;-41
2023/04/29 16:47:47;;;;;;;1.83;0.60;;;15.60;1.00;;;;;;20752228;28;20121;-41
2023/04/29 16:57:48;;;;;;;2.63;0.85;;;15.40;1.00;;;;;;20731465;28;20064;-41
2023/04/29 17:07:49;;;;;;;2.67;1.05;;;15.20;1.00;;;;;;20729259;28;20049;-41
2023/04/29 17:17:51;;;;;;;3.17;0.70;;;15.00;1.00;;;;;;20720904;28;20052;-41
2023/04/29 17:27:52;;;;;;;1.95;0.65;;;14.90;1.00;;;;;;20727135;28;20071;-41
2023/04/29 17:37:53;;;;;;;3.38;1.15;;;14.60;1.00;;;;;;20727493;28;20052;-41
2023/04/29 17:47:54;;;;;;;11.50;1.77;;;14.40;1.00;;;;;;20745515;28;20048;-41
2023/04/29 17:57:55;;;;;;;4.22;1.45;;;14.10;1.00;;;;;;20737177;28;20080;-41
2023/04/29 18:07:56;;;;;;;6.07;1.35;;;13.80;1.00;;;;;;20726007;28;20048;-41
2023/04/29 18:17:57;;;;;;;3.22;1.30;;;13.60;1.00;;;;;;20737013;28;20056;-41
2023/04/29 18:27:58;;;;;;;3.80;1.50;;;13.40;1.00;;;;;;20750929;28;20065;-41
2023/04/29 18:38:00;;;;;;;3.05;1.83;;;13.20;1.00;;;;;;20712310;28;20166;-41
2023/04/29 18:48:05;;;;;;;2.95;1.67;;;13.00;1.00;;;;;;20711670;28;20046;-42
2023/04/29 18:58:06;;;;;;;2.40;1.25;;;12.70;1.00;;;;;;20713223;28;20187;-41
2023/04/29 19:08:07;;;;;;;4.03;1.83;;;12.60;1.00;;;;;;20712238;28;20046;-41
2023/04/29 19:18:08;;;;;;;3.40;1.15;;;12.40;1.00;;;;;;20710680;28;20041;-41
2023/04/29 19:28:09;;;;;;;5.05;2.10;;;12.20;1.00;;;;;;20709680;28;20045;-41
2023/04/29 19:38:10;;;;;;;3.00;1.40;;;12.00;1.00;;;;;;20698439;28;20398;-41
2023/04/29 19:48:11;;;;;;;6.57;2.53;;;11.90;1.00;;;;;;20718437;28;20041;-41
2023/04/29 19:58:12;;;;;;;5.85;2.33;;;11.70;1.00;;;;;;20726760;28;20049;-41
2023/04/29 20:08:13;;;;;;;7.30;2.85;;;11.70;1.00;;;;;;20715883;28;20137;-41
2023/04/29 20:18:16;;;;;;;6.70;1.73;;;11.50;1.00;;;;;;20720939;28;20049;-41
2023/04/29 20:28:17;;;;;;;4.22;2.10;;;11.20;1.00;;;;;;20726457;28;22395;-42
2023/04/29 20:38:18;;;;;;;6.40;1.80;;;11.20;1.00;;;;;;20711617;28;20045;-41
2023/04/29 20:48:19;;;;;;;6.80;2.40;;;11.10;1.00;;;;;;20722948;28;20259;-42
2023/04/29 20:58:20;;;;;;;7.20;2.40;;;10.90;1.00;;;;;;20716794;28;20037;-41
2023/04/29 21:08:21;;;;;;;3.70;1.98;;;10.70;1.00;;;;;;20709371;28;20064;-42
2023/04/29 21:18:23;;;;;;;12.75;4.60;;;10.70;1.00;;;;;;20717713;28;20449;-42
2023/04/29 21:28:24;;;;;;;6.53;3.05;;;10.60;1.00;;;;;;20719975;28;20029;-42
2023/04/29 21:38:25;;;;;;;6.47;2.33;;;10.60;1.00;;;;;;20717566;28;20042;-42
2023/04/29 21:48:26;;;;;;;6.68;2.67;;;10.60;1.00;;;;;;20723130;28;20045;-42
2023/04/29 21:58:27;;;;;;;5.97;2.78;;;10.50;1.00;;;;;;20714034;28;20048;-41
2023/04/29 22:08:28;;;;;;;5.78;2.60;;;10.40;1.00;;;;;;20718157;28;20193;-42
2023/04/29 22:18:29;;;;;;;5.85;2.88;;;10.20;1.00;;;;;;20706250;28;20397;-42
2023/04/29 22:28:30;;;;;;;5.30;2.45;;;10.10;1.00;;;;;;20722069;28;20370;-42
2023/04/29 22:38:31;;;;;;;6.15;2.90;;;10.10;1.00;;;;;;20709153;28;20034;-42
2023/04/29 22:48:33;;;;;;;5.15;2.50;;;9.90;1.00;;;;;;20713173;28;20041;-42
2023/04/29 22:58:34;;;;;;;6.70;3.60;;;9.80;1.00;;;;;;20712868;28;20378;-42
2023/04/29 23:08:35;;;;;;;6.32;2.90;;;9.70;1.00;;;;;;20716347;28;20041;-42
2023/04/29 23:18:36;;;;;;;9.57;3.67;;;9.50;1.00;;;;;;20704354;28;20044;-42
2023/04/29 23:28:37;;;;;;;7.72;2.50;;;9.50;1.00;;;;;;20693026;28;20497;-42
2023/04/29 23:38:38;;;;;;;7.43;3.58;;;9.40;1.00;;;;;;20695196;28;20049;-42
2023/04/29 23:48:39;;;;;;;9.05;3.28;;;9.30;1.00;;;;;;20711702;28;20037;-42
2023/04/29 23:58:40;;;;;;;8.57;3.25;;;9.10;1.00;;;;;;20710988;28;20395;-41
